Time;durP1;ratioP1;P1;durP2;ratioP2;P2;SDS_P1;SDS_P2;PMS_P1;PMS_P2;Temp;Humidity;BMP_temperature;BMP_pressure;BME280_temperature;BME280_humidity;BME280_pressure;Samples;Min_cycle;Max_cycle;Signal;HPM_P1;HPM_P2
2022/02/10 00:20:44;;;;;;;4.13;2.90;;;;;;;6.16;46.49;98529.53;5058775;28;20043;-74
2022/02/10 00:34:11;;;;;;;4.60;3.27;;;;;;;6.11;46.25;98524.72;5044053;28;20043;-74
2022/02/10 00:34:33;;;;;;;2.90;2.50;;;;;;;6.14;46.49;98520.94;5043882;28;20464;-74
2022/02/10 00:37:11;;;;;;;3.43;2.50;;;;;;;6.45;45.71;98515.00;5041382;28;20040;-74
2022/02/10 00:42:21;;;;;;;3.00;2.37;;;;;;;6.10;45.18;98509.91;5043747;28;20468;-71
2022/02/10 00:44:47;;;;;;;4.13;2.80;;;;;;;6.38;45.62;98524.50;5041536;28;20048;-71
2022/02/10 00:47:13;;;;;;;3.93;2.50;;;;;;;6.30;45.40;98527.13;5040584;28;20046;-71
2022/02/10 00:49:40;;;;;;;4.53;2.53;;;;;;;6.42;45.67;98527.66;5057668;28;20044;-71
2022/02/10 00:52:07;;;;;;;4.03;2.40;;;;;;;6.32;45.44;98522.50;5040996;28;20503;-71
2022/02/10 00:54:36;;;;;;;3.87;2.40;;;;;;;6.34;45.50;98522.34;5024509;28;20101;-71
2022/02/10 00:57:06;;;;;;;3.47;2.20;;;;;;;6.15;44.73;98488.34;5057548;28;20516;-71
2022/02/10 00:59:50;;;;;;;3.27;2.17;;;;;;;6.27;44.51;98514.25;5025047;28;20085;-71
2022/02/10 01:10:39;;;;;;;4.03;1.90;;;;;;;6.76;42.88;98510.78;5041751;28;20044;-73
2022/02/10 01:29:36;;;;;;;2.60;1.67;;;;;;;6.23;43.15;98493.63;5042073;28;20484;-74
2022/02/10 01:32:04;;;;;;;2.00;1.80;;;;;;;6.47;43.10;98489.28;5039073;28;20086;-72
2022/02/10 01:34:31;;;;;;;3.53;1.70;;;;;;;6.24;42.95;98490.81;5038786;28;20044;-72
2022/02/10 01:36:57;;;;;;;2.70;1.90;;;;;;;6.07;43.64;98478.59;5039602;28;20076;-74
2022/02/10 01:39:30;;;;;;;3.07;1.60;;;;;;;6.12;43.31;98478.94;5040203;28;20169;-81
2022/02/10 02:03:52;;;;;;;4.27;1.63;;;;;;;5.95;43.81;98469.28;5042067;28;20056;-71
2022/02/10 02:06:24;;;;;;;1.60;1.20;;;;;;;5.77;43.70;98454.50;5022946;28;20036;-71
2022/02/10 02:08:51;;;;;;;3.47;1.70;;;;;;;5.85;43.99;98478.28;5073626;28;20085;-71
2022/02/10 02:11:17;;;;;;;4.17;1.60;;;;;;;5.59;43.99;98465.13;5073267;28;20058;-74
2022/02/10 02:13:43;;;;;;;2.17;1.40;;;;;;;5.73;44.09;98467.19;5039402;28;20043;-74
2022/02/10 02:16:09;;;;;;;1.40;1.30;;;;;;;5.62;43.92;98477.97;5022717;28;20047;-74
2022/02/10 02:18:35;;;;;;;2.40;1.70;;;;;;;5.45;44.20;98470.94;5039504;28;20040;-74
2022/02/10 02:21:01;;;;;;;1.60;1.37;;;;;;;5.63;44.04;98463.81;5022874;28;20500;-74
2022/02/10 02:23:28;;;;;;;1.83;1.30;;;;;;;5.90;43.90;98466.31;5056061;28;20445;-76
2022/02/10 02:26:03;;;;;;;1.40;1.27;;;;;;;5.79;44.10;98457.81;5072735;28;20036;-74
2022/02/10 02:28:34;;;;;;;1.90;1.67;;;;;;;5.84;44.31;98456.41;5056862;28;20192;-74
2022/02/10 02:31:05;;;;;;;3.45;1.70;;;;;;;5.59;44.42;98457.22;5055992;28;20062;-76
2022/02/10 03:08:22;;;;;;;2.33;1.70;;;;;;;5.09;45.77;98421.97;5071681;28;20040;-75
2022/02/10 03:13:20;;;;;;;3.50;1.80;;;;;;;5.08;46.22;98365.91;5036605;28;20051;-72
2022/02/10 03:18:35;;;;;;;2.97;1.90;;;;;;;4.85;46.91;98377.91;5036964;28;20036;-73
2022/02/10 04:03:27;;;;;;;2.77;1.93;;;;;;;4.59;47.94;98382.31;5040900;28;20043;-71
2022/02/10 04:08:24;;;;;;;2.77;1.90;;;;;;;4.57;48.17;98350.06;5062106;28;20499;-73
2022/02/10 04:13:40;;;;;;;2.43;1.70;;;;;;;4.71;47.85;98365.31;5063527;28;20411;-71
2022/02/10 05:22:15;;;;;;;5.40;1.83;;;;;;;4.66;48.03;98298.34;5075860;28;20916;-71
2022/02/10 05:35:29;;;;;;;3.30;2.10;;;;;;;4.89;47.88;98310.03;5074336;28;20155;-70
2022/02/10 07:04:24;;;;;;;5.37;2.30;;;;;;;5.83;46.96;98261.59;5054374;28;20068;-69
2022/02/10 07:08:03;;;;;;;6.07;2.70;;;;;;;5.81;46.73;98261.72;5047957;28;20041;-69
2022/02/10 07:43:28;;;;;;;6.23;2.60;;;;;;;5.75;46.98;98257.09;5075701;28;20040;-70
2022/02/10 07:53:48;;;;;;;10.07;2.63;;;;;;;6.28;46.30;98230.34;5038591;28;20097;-70
2022/02/10 08:04:57;;;;;;;6.07;2.57;;;;;;;6.22;46.83;98212.56;5073298;28;20052;-69
2022/02/10 08:26:05;;;;;;;8.30;2.20;;;;;;;6.33;47.38;98206.97;5075089;28;20091;-69
2022/02/10 08:56:45;;;;;;;5.30;2.67;;;;;;;7.18;48.78;98200.97;5089243;28;20044;-71
2022/02/10 08:59:44;;;;;;;5.10;2.30;;;;;;;7.09;48.58;98200.16;5042552;28;20036;-72
2022/02/10 09:02:20;;;;;;;5.40;2.80;;;;;;;6.91;49.11;98207.50;5058045;28;20067;-72
2022/02/10 09:08:02;;;;;;;5.00;2.93;;;;;;;6.65;50.10;98197.19;5057345;28;20143;-71
2022/02/10 09:19:31;;;;;;;4.97;3.00;;;;;;;6.54;50.43;98175.59;5089911;28;20054;-72
2022/02/10 10:02:46;;;;;;;9.87;4.00;;;;;;;7.37;52.12;98137.16;5087487;28;20484;-74
2022/02/10 10:05:26;;;;;;;7.77;3.47;;;;;;;7.47;51.69;98158.91;5055361;28;20386;-75
2022/02/10 10:10:44;;;;;;;11.53;3.30;;;;;;;7.06;52.43;98168.03;5053971;28;20044;-76
2022/02/10 10:21:40;;;;;;;5.27;3.50;;;;;;;7.74;52.43;98184.81;5065124;28;20050;-72
2022/02/10 10:56:43;;;;;;;8.17;3.77;;;;;;;8.38;50.67;98195.72;5051136;28;20044;-74
2022/02/10 11:39:37;;;;;;;3.92;2.67;;;;;;;12.34;42.24;98230.50;5089999;28;20040;-75
2022/02/10 12:36:27;;;;;;;4.80;1.90;;;;;;;11.02;41.23;98277.16;5033865;28;20487;-74
2022/02/10 13:31:54;;;;;;;9.23;2.60;;;;;;;9.43;44.51;98333.19;5055260;28;20035;-76
2022/02/10 13:34:41;;;;;;;4.78;2.10;;;;;;;9.34;44.48;98321.03;5087764;28;20058;-74
2022/02/10 14:28:34;;;;;;;7.10;3.00;;;;;;;8.22;49.01;98373.06;5072317;28;20044;-80
2022/02/10 14:31:04;;;;;;;5.63;3.00;;;;;;;8.16;49.47;98378.19;5040454;28;20039;-81
2022/02/10 14:33:34;;;;;;;11.75;3.53;;;;;;;8.10;49.80;98389.47;5040805;28;20036;-78
2022/02/10 14:36:06;;;;;;;6.17;3.27;;;;;;;7.98;49.94;98393.50;5090039;28;20048;-79
2022/02/10 14:38:44;;;;;;;10.77;3.13;;;;;;;7.68;50.08;98368.66;5056034;28;20554;-76
2022/02/10 15:12:03;;;;;;;4.40;2.33;;;;;;;7.23;49.69;98404.56;5044305;28;20055;-81
2022/02/10 15:28:54;;;;;;;4.63;2.00;;;;;;;7.17;49.93;98413.16;5042320;28;20040;-79
2022/02/10 15:52:29;;;;;;;8.07;2.40;;;;;;;7.57;49.10;98424.50;5059951;28;20043;-80
2022/02/10 16:10:50;;;;;;;10.40;3.77;;;;;;;7.40;49.15;98432.59;5058539;28;20051;-78
2022/02/10 16:11:08;;;;;;;12.13;2.30;;;;;;;8.52;49.88;98464.00;5053461;28;20494;-75
2022/02/10 16:18:53;;;;;;;8.13;2.00;;;;;;;8.96;47.09;98469.53;5058243;28;20040;-75
2022/02/10 16:21:34;;;;;;;3.77;1.60;;;;;;;9.15;46.21;98475.16;5074062;28;20119;-76
2022/02/10 16:24:04;;;;;;;4.25;1.80;;;;;;;8.66;46.73;98442.09;5058878;28;20168;-76
2022/02/10 16:26:54;;;;;;;3.00;1.85;;;;;;;9.02;46.03;98476.75;5040199;28;20097;-73
2022/02/10 16:29:25;;;;;;;9.37;2.07;;;;;;;9.33;45.33;98472.22;5043005;28;20040;-75
2022/02/10 16:31:51;;;;;;;4.05;1.85;;;;;;;8.90;45.35;98475.53;5041044;28;20039;-74
2022/02/10 16:34:17;;;;;;;4.67;1.67;;;;;;;8.65;45.61;98480.13;5057182;28;20047;-73
2022/02/10 16:36:45;;;;;;;2.63;1.60;;;;;;;8.52;45.91;98469.28;5057429;28;20069;-76
2022/02/10 16:39:14;;;;;;;4.97;1.80;;;;;;;8.71;46.53;98478.59;5069836;28;20044;-74
2022/02/10 16:41:40;;;;;;;1.90;1.40;;;;;;;8.34;46.69;98481.94;5037486;28;20044;-74
2022/02/10 16:44:06;;;;;;;3.90;1.30;;;;;;;7.98;47.24;98483.38;5036824;28;20063;-74
2022/02/10 16:46:32;;;;;;;3.13;1.40;;;;;;;7.81;47.62;98468.56;5053510;28;20044;-73
2022/02/10 16:48:58;;;;;;;3.50;1.47;;;;;;;7.82;47.42;98484.25;5053476;28;20044;-73
2022/02/10 16:51:26;;;;;;;2.47;1.50;;;;;;;7.79;47.67;98481.09;5019930;28;20036;-80
2022/02/10 16:54:00;;;;;;;3.30;1.70;;;;;;;7.67;48.38;98480.59;5053305;28;20109;-73
2022/02/10 16:56:34;;;;;;;6.63;1.60;;;;;;;7.50;48.52;98472.91;5038509;28;20042;-75
2022/02/10 16:59:40;;;;;;;4.47;1.70;;;;;;;7.55;48.29;98483.78;5056621;28;20032;-76
2022/02/10 17:05:58;;;;;;;3.67;1.60;;;;;;;7.52;48.12;98498.13;5036343;28;20047;-76
2022/02/10 17:18:49;;;;;;;3.83;2.30;;;;;;;7.68;47.95;98490.22;5054233;28;20486;-75
2022/02/10 17:26:50;;;;;;;4.23;1.90;;;;;;;7.80;47.65;98510.00;5054848;28;20048;-74
2022/02/10 17:29:36;;;;;;;3.40;1.93;;;;;;;7.52;47.47;98505.25;5022602;28;20054;-74
2022/02/10 17:32:12;;;;;;;3.17;1.73;;;;;;;7.56;47.27;98511.84;5072726;28;20489;-75
2022/02/10 17:37:30;;;;;;;3.50;2.20;;;;;;;7.78;46.48;98493.47;5071022;28;20123;-74
2022/02/10 17:53:29;;;;;;;10.20;2.20;;;;;;;7.53;46.60;98514.81;5057851;28;20040;-75
2022/02/10 17:55:55;;;;;;;3.40;2.03;;;;;;;7.57;46.31;98511.69;5053031;28;20051;-78
2022/02/10 17:58:22;;;;;;;4.57;2.23;;;;;;;7.56;46.83;98515.31;5019665;28;20462;-75
2022/02/10 18:00:50;;;;;;;5.37;2.30;;;;;;;7.70;46.65;98511.19;5048410;28;20048;-78
2022/02/10 18:03:16;;;;;;;4.10;2.33;;;;;;;7.56;46.91;98519.78;5036209;28;20089;-76
2022/02/10 18:08:11;;;;;;;4.23;2.00;;;;;;;7.22;47.44;98513.81;5035074;28;20040;-76
2022/02/10 18:15:51;;;;;;;4.53;1.90;;;;;;;7.30;47.61;98516.47;5071387;28;20044;-76
2022/02/10 18:18:26;;;;;;;3.97;2.33;;;;;;;7.31;47.56;98512.84;5038626;28;20052;-72
2022/02/10 18:21:02;;;;;;;3.87;2.00;;;;;;;7.36;47.51;98516.66;5056275;28;20072;-78
2022/02/10 18:23:37;;;;;;;4.20;2.10;;;;;;;7.63;46.57;98524.22;5055956;28;20048;-79
2022/02/10 18:26:10;;;;;;;5.20;2.37;;;;;;;7.44;47.13;98521.91;5038799;28;20419;-78
2022/02/10 18:28:53;;;;;;;3.90;2.30;;;;;;;7.58;46.65;98525.72;5071020;28;20043;-75
2022/02/10 19:09:48;;;;;;;5.83;3.30;;;;;;;7.79;44.93;98536.59;5056785;28;20048;-77
2022/02/10 19:12:25;;;;;;;7.20;2.37;;;;;;;7.73;44.67;98537.28;5054827;28;20475;-74
2022/02/10 19:14:56;;;;;;;5.57;2.13;;;;;;;7.62;44.40;98530.50;5057906;28;20058;-76
2022/02/10 19:17:24;;;;;;;3.33;1.40;;;;;;;7.79;44.04;98534.78;5057336;28;20043;-76
2022/02/10 19:19:50;;;;;;;5.33;1.90;;;;;;;7.52;44.15;98531.69;5045071;28;20040;-76
2022/02/10 19:22:18;;;;;;;3.80;1.47;;;;;;;7.58;44.42;98528.38;5056931;28;20365;-76
2022/02/10 19:24:45;;;;;;;4.03;2.00;;;;;;;7.58;44.18;98533.66;5071446;28;20050;-75
2022/02/10 19:27:13;;;;;;;6.90;2.83;;;;;;;7.33;44.01;98500.31;5071844;28;20131;-74
2022/02/10 19:29:39;;;;;;;4.63;1.73;;;;;;;7.51;43.52;98530.84;5070696;28;20051;-77
2022/02/10 19:32:06;;;;;;;3.83;1.30;;;;;;;7.67;43.61;98544.03;5037756;28;20044;-77
2022/02/10 19:34:35;;;;;;;4.10;1.60;;;;;;;7.42;43.45;98513.34;5036627;28;20048;-81
2022/02/10 19:37:01;;;;;;;3.57;1.73;;;;;;;7.46;43.56;98543.72;5059640;28;20484;-77
2022/02/10 19:39:27;;;;;;;5.50;1.80;;;;;;;7.37;44.63;98538.59;5059959;28;20096;-75
2022/02/10 19:41:54;;;;;;;6.23;1.90;;;;;;;7.51;43.63;98544.06;5058894;28;20048;-76
2022/02/10 19:44:22;;;;;;;4.07;1.80;;;;;;;7.11;43.59;98516.78;5075607;28;20048;-76
2022/02/10 19:46:48;;;;;;;33.03;17.17;;;;;;;7.24;43.79;98540.91;5075834;28;20074;-73
2022/02/10 19:49:20;;;;;;;12.20;3.97;;;;;;;7.25;44.01;98539.91;5059417;28;20036;-74
2022/02/10 19:51:47;;;;;;;2.83;1.70;;;;;;;6.85;44.38;98538.03;5060191;28;20422;-74
2022/02/10 19:54:15;;;;;;;6.07;2.17;;;;;;;7.11;44.64;98537.91;5059143;28;20047;-72
2022/02/10 19:56:41;;;;;;;4.53;2.07;;;;;;;7.02;44.35;98538.88;5075968;28;20060;-71
2022/02/10 19:59:13;;;;;;;4.00;2.10;;;;;;;7.07;44.09;98541.88;5042340;28;20083;-71
2022/02/10 20:01:40;;;;;;;4.50;1.73;;;;;;;7.00;44.16;98543.50;5076667;28;20075;-71
2022/02/10 20:04:09;;;;;;;2.83;1.63;;;;;;;6.92;44.38;98543.50;5041962;28;20059;-71
2022/02/10 20:06:37;;;;;;;9.38;3.78;;;;;;;6.86;44.90;98534.38;5059449;28;20055;-71
2022/02/10 20:09:05;;;;;;;8.03;3.47;;;;;;;6.88;45.21;98535.06;5042106;28;20044;-72
2022/02/10 20:11:31;;;;;;;2.13;1.43;;;;;;;6.78;45.06;98537.84;5057763;28;20055;-72
2022/02/10 20:13:57;;;;;;;4.57;1.77;;;;;;;6.88;44.69;98548.25;5058073;28;21598;-72
2022/02/10 20:16:23;;;;;;;3.87;1.27;;;;;;;6.76;44.89;98549.56;5039498;28;20093;-73
2022/02/10 20:18:49;;;;;;;4.17;1.43;;;;;;;6.84;44.73;98550.38;5055126;28;20508;-76
2022/02/10 20:21:16;;;;;;;3.53;1.30;;;;;;;6.81;44.95;98537.50;5055394;28;20060;-72
2022/02/10 20:23:42;;;;;;;4.30;1.40;;;;;;;6.56;45.07;98533.16;5055837;28;20040;-72
2022/02/10 20:26:10;;;;;;;4.43;2.67;;;;;;;6.85;44.95;98538.88;5039108;28;20523;-71
2022/02/10 20:28:36;;;;;;;4.17;1.90;;;;;;;6.79;44.82;98538.69;5022433;28;20109;-71
2022/02/10 20:31:03;;;;;;;2.90;1.30;;;;;;;7.07;44.01;98542.72;5022477;28;20040;-70
2022/02/10 20:33:30;;;;;;;2.70;1.50;;;;;;;6.72;44.62;98543.75;5045378;28;20039;-71
2022/02/10 20:35:59;;;;;;;1.90;1.13;;;;;;;6.65;45.17;98534.84;5096334;28;20384;-71
2022/02/10 20:38:25;;;;;;;2.77;1.50;;;;;;;6.72;44.69;98542.94;5062512;28;20070;-69
2022/02/10 20:41:03;;;;;;;2.10;1.30;;;;;;;6.68;44.61;98545.09;5062042;28;20071;-76
2022/02/10 20:43:30;;;;;;;2.33;1.40;;;;;;;6.49;44.97;98541.84;5078230;28;20044;-70
2022/02/10 20:46:00;;;;;;;7.47;3.33;;;;;;;6.65;44.57;98544.56;5060667;28;20039;-71
2022/02/10 20:48:28;;;;;;;2.30;1.43;;;;;;;6.31;45.60;98536.69;5077930;28;20062;-71
2022/02/10 20:50:56;;;;;;;2.80;1.40;;;;;;;6.23;45.69;98547.19;5078415;28;20447;-69
2022/02/10 20:53:24;;;;;;;4.97;1.30;;;;;;;6.62;44.79;98540.44;5061450;28;20086;-75
2022/02/10 20:55:56;;;;;;;4.03;1.73;;;;;;;6.69;44.63;98541.44;5113207;28;20103;-70
2022/02/10 20:58:28;;;;;;;2.57;1.47;;;;;;;6.46;44.83;98543.00;5078242;28;20043;-69
2022/02/10 21:00:57;;;;;;;4.07;2.27;;;;;;;6.55;44.46;98541.25;5061187;28;20047;-71
2022/02/10 21:03:26;;;;;;;4.43;1.87;;;;;;;6.36;44.43;98552.03;5078498;28;20130;-75
2022/02/10 21:06:54;;;;;;;3.10;1.73;;;;;;;6.38;44.76;98523.72;5078719;28;20039;-69
2022/02/10 21:08:54;;;;;;;4.63;2.47;;;;;;;6.49;44.75;98547.97;5063121;28;20043;-69
2022/02/10 21:11:23;;;;;;;7.55;3.45;;;;;;;6.63;44.14;98552.63;5096633;28;20505;-69
2022/02/10 21:13:49;;;;;;;13.77;4.47;;;;;;;6.66;44.03;98544.41;5061546;28;20138;-69
2022/02/10 21:16:15;;;;;;;14.70;4.53;;;;;;;6.64;44.10;98556.91;5060544;28;20134;-69
2022/02/10 21:18:43;;;;;;;11.07;3.77;;;;;;;6.61;44.32;98546.69;5077687;28;20042;-69
2022/02/10 21:21:14;;;;;;;13.70;4.70;;;;;;;6.65;44.24;98547.19;5077701;28;20479;-69
2022/02/10 21:23:57;;;;;;;10.80;4.23;;;;;;;6.73;43.85;98545.41;5060626;28;20044;-69
2022/02/10 21:26:29;;;;;;;6.67;3.00;;;;;;;6.68;43.44;98528.41;5079804;28;20620;-70
2022/02/10 21:29:00;;;;;;;9.80;3.17;;;;;;;6.93;43.90;98559.16;5078111;28;20115;-69
2022/02/10 21:31:26;;;;;;;;;;;;;;;7.43;42.71;98575.75;5078254;28;20043;-69
2022/02/10 21:34:05;;;;;;;4.23;2.07;;;;;;;6.72;43.80;98564.88;5077534;28;19919;-70
2022/02/10 21:36:56;;;;;;;4.57;1.70;;;;;;;6.67;43.71;98564.50;5076923;28;20058;-70
2022/02/10 21:39:51;;;;;;;7.17;1.63;;;;;;;6.31;44.42;98563.06;5097676;28;20407;-69
2022/02/10 21:48:11;;;;;;;3.87;1.60;;;;;;;6.03;44.95;98566.00;5060072;28;20467;-71
2022/02/10 21:55:39;;;;;;;3.73;1.73;;;;;;;6.47;44.30;98562.31;5093476;28;20043;-70
2022/02/10 21:59:09;;;;;;;3.40;1.70;;;;;;;6.49;44.01;98547.97;5062983;28;20039;-69
2022/02/10 22:02:35;;;;;;;1.43;1.10;;;;;;;6.42;44.18;98540.84;5075110;28;20495;-69
2022/02/10 22:07:58;;;;;;;3.08;1.15;;;;;;;6.52;44.13;98538.91;5061989;28;20048;-68
2022/02/10 22:17:55;;;;;;;5.50;1.53;;;;;;;6.16;44.28;98503.16;5077044;28;20065;-70
2022/02/10 22:20:16;;;;;;;2.87;1.63;;;;;;;6.64;43.61;98525.25;5074546;28;20047;-70
2022/02/10 22:23:03;;;;;;;2.97;1.33;;;;;;;6.56;43.59;98512.06;5091793;28;20523;-69
2022/02/10 22:25:29;;;;;;;3.23;1.50;;;;;;;6.26;44.33;98546.88;5077651;28;20039;-69
2022/02/10 22:28:00;;;;;;;5.30;1.27;;;;;;;5.89;45.24;98511.28;5058260;28;20046;-69
2022/02/10 22:30:51;;;;;;;6.60;1.50;;;;;;;6.04;45.34;98539.50;5058385;28;20071;-69
2022/02/10 22:33:28;;;;;;;2.23;1.40;;;;;;;6.28;44.75;98547.56;5079347;28;20051;-69
2022/02/10 22:35:54;;;;;;;2.33;1.30;;;;;;;6.36;44.68;98549.41;5059129;28;20055;-68
2022/02/10 22:38:22;;;;;;;3.57;1.40;;;;;;;6.37;44.59;98541.31;5090730;28;20128;-69
2022/02/10 22:43:21;;;;;;;2.63;1.30;;;;;;;6.32;44.93;98534.88;5056777;28;20039;-69
2022/02/10 22:45:47;;;;;;;1.87;1.17;;;;;;;6.21;45.14;98538.59;5057451;28;20040;-69
2022/02/10 22:48:13;;;;;;;7.33;1.27;;;;;;;6.36;44.83;98542.31;5057706;28;20059;-68
2022/02/10 22:50:39;;;;;;;2.57;1.20;;;;;;;5.96;45.88;98544.75;5092916;28;20047;-70
2022/02/10 22:53:06;;;;;;;2.83;1.60;;;;;;;6.40;45.00;98538.38;5042574;28;20131;-71
2022/02/10 22:55:32;;;;;;;3.17;1.40;;;;;;;6.04;45.16;98515.78;5058928;28;20475;-70
2022/02/10 22:57:58;;;;;;;4.47;1.60;;;;;;;6.34;44.59;98540.81;5092986;28;20050;-70
2022/02/10 23:00:33;;;;;;;3.00;1.40;;;;;;;6.62;44.09;98537.81;5092722;28;20139;-70
2022/02/10 23:02:59;;;;;;;6.20;1.73;;;;;;;6.29;45.06;98543.09;5076312;28;20075;-70
2022/02/10 23:05:25;;;;;;;6.17;3.23;;;;;;;6.40;44.60;98548.91;5056034;28;20097;-70
2022/02/10 23:07:56;;;;;;;4.73;2.43;;;;;;;6.38;44.60;98542.97;5055461;28;20092;-70
2022/02/10 23:13:25;;;;;;;9.60;3.40;;;;;;;6.49;44.94;98542.69;5057380;28;20460;-70
2022/02/10 23:15:51;;;;;;;7.37;2.80;;;;;;;6.48;44.74;98535.78;5063094;28;20075;-71
2022/02/10 23:18:23;;;;;;;4.30;1.80;;;;;;;6.76;44.26;98539.81;5062687;28;20358;-71
2022/02/10 23:20:50;;;;;;;3.50;1.73;;;;;;;6.66;44.03;98533.84;5079588;28;20040;-69
2022/02/10 23:23:19;;;;;;;3.53;1.47;;;;;;;6.36;44.70;98547.59;5046145;28;20227;-69
2022/02/10 23:25:47;;;;;;;3.87;1.53;;;;;;;6.37;45.16;98553.66;5095828;28;20052;-70
2022/02/10 23:28:18;;;;;;;4.23;1.30;;;;;;;6.48;45.21;98537.56;5095720;28;20079;-71
2022/02/10 23:30:46;;;;;;;4.53;1.43;;;;;;;6.38;44.85;98540.34;5079019;28;20040;-70
2022/02/10 23:33:24;;;;;;;5.97;1.47;;;;;;;6.86;44.12;98529.94;5062553;28;20513;-71
2022/02/10 23:43:55;;;;;;;3.03;1.20;;;;;;;6.28;44.33;98544.06;5095984;28;20044;-70
2022/02/10 23:46:21;;;;;;;4.97;1.30;;;;;;;6.09;44.41;98513.50;5078261;28;20043;-71
2022/02/10 23:48:48;;;;;;;2.93;1.20;;;;;;;6.41;44.39;98531.28;5043104;28;20059;-71
2022/02/10 23:51:14;;;;;;;7.93;1.40;;;;;;;6.11;44.66;98535.28;5059660;28;20048;-71
2022/02/10 23:53:40;;;;;;;2.20;1.30;;;;;;;5.85;45.60;98502.00;5059593;28;20242;-71
2022/02/10 23:56:10;;;;;;;6.30;1.20;;;;;;;6.17;44.98;98532.00;5076530;28;20135;-70
2022/02/10 23:58:49;;;;;;;5.35;1.58;;;;;;;5.85;45.36;98525.72;5060672;28;20108;-71
